createdAt,value
2023-04-10T00:04:53.459Z,5.36
2023-04-10T00:19:02.586Z,4.91
2023-04-10T00:33:15.111Z,4.6
2023-04-10T00:47:24.173Z,4.31
2023-04-10T01:01:34.753Z,4.1
2023-04-10T01:15:45.746Z,4.08
2023-04-10T01:29:57.191Z,4.19
2023-04-10T01:44:10.818Z,4.54
2023-04-10T01:58:20.826Z,5.03
2023-04-10T02:12:35.510Z,5.19
2023-04-10T02:26:44.017Z,5.02
2023-04-10T02:40:53.388Z,4.87
2023-04-10T02:55:07.798Z,4.95
2023-04-10T03:09:16.934Z,5
2023-04-10T03:23:26.863Z,5.04
2023-04-10T03:51:49.715Z,4.91
2023-04-10T04:06:00.653Z,4.69
2023-04-10T04:20:11.676Z,4.44
2023-04-10T04:34:23.046Z,4.05
2023-04-10T04:48:32.816Z,3.85
2023-04-10T05:02:44.367Z,3.97
2023-04-10T05:16:56.525Z,4.23
2023-04-10T05:31:09.394Z,4.51
2023-04-10T05:45:22.280Z,4.95
2023-04-10T05:59:35.092Z,5.12
2023-04-10T06:00:42.780Z,5.21
2023-04-10T06:13:47.734Z,5.39
2023-04-10T06:28:00.469Z,5.56
2023-04-10T06:29:20.388Z,5.57
2023-04-10T06:42:11.296Z,5.85
2023-04-10T06:56:24.143Z,6.22
2023-04-10T06:57:53.873Z,6.34
2023-04-10T07:10:38.708Z,7.2
2023-04-10T07:24:54.591Z,8.16
2023-04-10T07:39:06.571Z,8.84
2023-04-10T07:39:22.999Z,8.93
2023-04-10T07:40:27.766Z,9.01
2023-04-10T07:41:30.047Z,9.07
2023-04-10T07:42:32.651Z,9.13
2023-04-10T07:43:35.972Z,9.16
2023-04-10T07:53:21.380Z,9.55
2023-04-10T07:54:06.047Z,9.58
2023-04-10T07:55:09.436Z,9.60
2023-04-10T07:56:12.677Z,9.63
2023-04-10T07:57:14.934Z,9.65
2023-04-10T07:58:18.920Z,9.68
2023-04-10T07:59:22.163Z,9.72
2023-04-10T08:00:24.500Z,9.74
2023-04-10T08:01:27.870Z,9.77
2023-04-10T08:10:58.139Z,9.79
2023-04-10T08:12:01.920Z,9.85
2023-04-10T08:13:03.980Z,9.91
2023-04-10T08:14:07.570Z,9.98
2023-04-10T08:15:09.721Z,10.05
2023-04-10T08:16:12.231Z,10.12
2023-04-10T08:17:14.786Z,10.19
2023-04-10T08:18:17.017Z,10.23
2023-04-10T08:19:19.447Z,10.30
2023-04-10T08:20:21.921Z,10.37
2023-04-10T08:21:25.923Z,10.43
2023-04-10T08:22:28.248Z,10.48
2023-04-10T08:23:30.692Z,10.55
2023-04-10T08:24:34.717Z,10.60
2023-04-10T08:25:37.089Z,10.68
2023-04-10T08:26:40.535Z,10.75
2023-04-10T08:27:42.836Z,10.79
2023-04-10T08:28:45.271Z,10.83
2023-04-10T08:29:47.759Z,10.87
2023-04-10T08:30:50.276Z,10.96
2023-04-10T08:31:54.270Z,11.00
2023-04-10T08:32:56.581Z,11.06
2023-04-10T08:33:59.523Z,11.12
2023-04-10T08:35:03.158Z,11.17
2023-04-10T08:36:06.613Z,11.24
2023-04-10T08:37:11.885Z,11.33
2023-04-10T08:38:14.354Z,11.40
2023-04-10T08:39:16.276Z,11.46
2023-04-10T08:40:21.214Z,11.53
2023-04-10T08:41:23.500Z,11.62
2023-04-10T08:42:25.991Z,11.70
2023-04-10T08:43:28.442Z,11.79
2023-04-10T08:44:30.919Z,11.85
2023-04-10T08:45:36.001Z,11.93
2023-04-10T08:46:39.991Z,11.99
2023-04-10T08:47:43.841Z,12.06
2023-04-10T08:48:47.262Z,12.16
2023-04-10T08:49:52.185Z,12.22
2023-04-10T08:50:54.411Z,12.29
2023-04-10T08:51:59.411Z,12.31
2023-04-10T08:53:01.715Z,12.35
2023-04-10T08:54:04.049Z,12.44
2023-04-10T08:55:08.074Z,12.46
2023-04-10T08:56:11.426Z,12.54
2023-04-10T08:57:13.828Z,12.61
2023-04-10T08:58:17.851Z,12.68
2023-04-10T08:59:20.243Z,12.73
2023-04-10T09:00:24.207Z,12.80
2023-04-10T09:01:26.532Z,12.86
2023-04-10T09:02:30.658Z,12.89
2023-04-10T09:03:32.966Z,12.96
2023-04-10T09:04:35.253Z,12.97
2023-04-10T09:05:39.359Z,13.05
2023-04-10T09:06:41.564Z,13.10
2023-04-10T09:07:45.665Z,13.13
2023-04-10T09:08:47.967Z,13.16
2023-04-10T09:09:50.441Z,13.22
2023-04-10T09:10:54.418Z,13.28
2023-04-10T09:11:56.944Z,13.33
2023-04-10T09:13:00.829Z,13.38
2023-04-10T09:14:03.127Z,13.42
2023-04-10T09:16:08.068Z,13.47
2023-04-10T09:17:12.086Z,13.45
2023-04-10T09:18:14.342Z,13.51
2023-04-10T09:19:16.790Z,13.50
2023-04-10T09:20:19.256Z,13.55
2023-04-10T09:21:23.344Z,13.59
2023-04-10T09:22:27.249Z,13.62
2023-04-10T09:23:29.598Z,13.64
2023-04-10T09:24:34.227Z,13.69
2023-04-10T09:25:37.544Z,13.71
2023-04-10T09:26:41.486Z,13.75
2023-04-10T09:27:44.793Z,13.73
2023-04-10T09:29:51.204Z,13.69
2023-04-10T09:30:53.597Z,13.73
2023-04-10T09:31:56.023Z,13.74
2023-04-10T09:35:03.361Z,13.66
2023-04-10T09:36:06.782Z,13.63
2023-04-10T09:37:09.124Z,13.66
2023-04-10T09:38:13.212Z,13.65
2023-04-10T09:41:20.502Z,13.66
2023-04-10T09:42:25.438Z,13.68
2023-04-10T09:43:27.636Z,13.72
2023-04-10T09:44:30.105Z,13.77
2023-04-10T09:45:35.172Z,13.83
2023-04-10T09:46:37.495Z,13.87
2023-04-10T09:47:39.835Z,13.92
2023-04-10T09:48:43.904Z,13.97
2023-04-10T09:49:46.283Z,14.01
2023-04-10T09:50:48.703Z,13.96
2023-04-10T09:51:51.082Z,14.01
2023-04-10T09:52:53.623Z,14.03
2023-04-10T09:53:56.162Z,14.06
2023-04-10T09:54:58.491Z,14.10
2023-04-10T09:56:00.859Z,14.13
2023-04-10T09:57:04.910Z,14.15
2023-04-10T09:58:07.388Z,14.18
2023-04-10T09:59:09.672Z,14.22
2023-04-10T10:00:17.004Z,14.27
2023-04-10T10:01:19.143Z,14.31
2023-04-10T10:02:21.648Z,14.35
2023-04-10T10:04:28.117Z,14.38
2023-04-10T10:05:32.062Z,14.41
2023-04-10T10:06:36.448Z,14.45
2023-04-10T10:07:38.731Z,14.53
2023-04-10T10:08:41.653Z,14.59
2023-04-10T10:09:45.504Z,14.65
2023-04-10T10:10:49.447Z,14.67
2023-04-10T10:11:51.871Z,14.75
2023-04-10T10:12:54.338Z,14.80
2023-04-10T10:22:29.373Z,15.07
2023-04-10T10:23:31.732Z,15.15
2023-04-10T10:30:44.214Z,15.66
2023-04-10T10:30:53.105Z,15.68
2023-04-10T10:31:55.454Z,15.74
2023-04-10T10:32:57.988Z,15.83
2023-04-10T10:34:01.374Z,15.89
2023-04-10T10:35:05.366Z,15.98
2023-04-10T10:36:07.792Z,16.04
2023-04-10T10:37:11.308Z,16.05
2023-04-10T10:38:13.769Z,16.07
2023-04-10T10:39:16.087Z,16.08
2023-04-10T10:41:22.706Z,16.12
2023-04-10T10:42:25.081Z,16.15
2023-04-10T10:43:27.524Z,16.21
2023-04-10T10:44:29.930Z,16.23
2023-04-10T10:45:33.983Z,16.29
2023-04-10T10:46:36.341Z,16.32
2023-04-10T10:47:38.807Z,16.36
2023-04-10T10:48:42.917Z,16.39
2023-04-10T10:49:45.226Z,16.36
2023-04-10T10:50:47.706Z,16.39
2023-04-10T10:51:51.744Z,16.42
2023-04-10T10:52:55.681Z,16.39
2023-04-10T10:54:02.927Z,16.44
2023-04-10T10:55:06.563Z,16.38
2023-04-10T10:56:10.593Z,16.33
2023-04-10T10:57:12.868Z,16.42
2023-04-10T10:58:15.432Z,16.46
2023-04-10T10:59:17.760Z,16.47
2023-04-10T11:00:20.268Z,16.50
2023-04-10T11:01:23.810Z,16.47
2023-04-10T11:02:26.275Z,16.54
2023-04-10T11:03:28.621Z,16.59
2023-04-10T11:04:30.965Z,16.63
2023-04-10T11:06:35.793Z,16.64
2023-04-10T11:07:38.265Z,16.60
2023-04-10T11:08:40.677Z,16.68
2023-04-10T11:09:43.263Z,16.75
2023-04-10T11:10:45.640Z,16.77
2023-04-10T11:11:48.093Z,16.87
2023-04-10T11:12:50.625Z,16.93
2023-04-10T11:13:54.535Z,16.95
2023-04-10T11:14:56.835Z,16.86
2023-04-10T11:16:00.483Z,16.88
2023-04-10T11:17:05.351Z,16.97
2023-04-10T11:18:07.625Z,17.01
2023-04-10T11:19:15.222Z,17.06
2023-04-10T11:20:12.569Z,17.07
2023-04-10T11:21:20.783Z,17.11
2023-04-10T11:22:24.238Z,17.10
2023-04-10T11:23:26.453Z,17.00
2023-04-10T11:24:28.926Z,17.04
2023-04-10T11:25:31.354Z,16.84
2023-04-10T11:27:42.404Z,16.83
2023-04-10T11:28:46.184Z,16.75
2023-04-10T11:30:50.817Z,16.73
2023-04-10T11:33:01.064Z,16.69
2023-04-10T11:34:04.593Z,16.71
2023-04-10T11:35:06.777Z,16.65
2023-04-10T11:36:09.171Z,16.62
2023-04-10T11:37:11.790Z,16.70
2023-04-10T11:38:14.396Z,16.71
2023-04-10T11:39:17.146Z,16.79
2023-04-10T11:41:22.017Z,16.85
2023-04-10T11:42:25.542Z,16.88
2023-04-10T11:43:27.756Z,16.96
2023-04-10T11:45:33.377Z,17.00
2023-04-10T11:46:37.429Z,17.08
2023-04-10T11:47:40.807Z,17.16
2023-04-10T11:48:43.091Z,17.18
2023-04-10T11:49:45.904Z,17.22
2023-04-10T11:50:48.428Z,17.23
2023-04-10T11:51:51.969Z,17.26
2023-04-10T11:52:55.312Z,17.24
2023-04-10T11:55:01.691Z,17.23
2023-04-10T11:57:08.105Z,17.31
2023-04-10T11:58:10.577Z,17.35
2023-04-10T11:59:13.971Z,17.36
2023-04-10T12:00:16.339Z,17.38
2023-04-10T12:02:21.398Z,17.42
2023-04-10T12:03:23.835Z,17.46
2023-04-10T12:04:28.103Z,17.50
2023-04-10T12:05:30.467Z,17.51
2023-04-10T12:06:34.312Z,17.53
2023-04-10T12:07:36.637Z,17.55
2023-04-10T12:08:40.375Z,17.56
2023-04-10T12:09:44.474Z,17.59
2023-04-10T12:10:48.417Z,17.60
2023-04-10T12:11:51.773Z,17.58
2023-04-10T12:12:56.243Z,17.57
2023-04-10T12:13:58.316Z,17.64
2023-04-10T12:15:00.803Z,17.72
2023-04-10T12:16:04.698Z,17.78
2023-04-10T12:17:09.034Z,17.88
2023-04-10T12:18:11.259Z,17.96
2023-04-10T12:19:17.674Z,18.01
2023-04-10T12:20:19.810Z,18.06
2023-04-10T12:21:23.940Z,18.04
2023-04-10T12:22:27.882Z,18.05
2023-04-10T12:23:30.265Z,18.16
2023-04-10T12:24:32.750Z,18.19
2023-04-10T12:26:40.624Z,18.15
2023-04-10T12:27:42.854Z,18.22
2023-04-10T12:29:47.790Z,18.19
2023-04-10T12:30:51.307Z,18.29
2023-04-10T12:32:59.414Z,18.33
2023-04-10T12:34:02.853Z,18.34
2023-04-10T12:35:05.163Z,18.36
2023-04-10T12:36:08.734Z,18.41
2023-04-10T12:37:11.252Z,18.46
2023-04-10T12:38:20.373Z,18.43
2023-04-10T12:39:26.157Z,18.44
2023-04-10T12:40:28.343Z,18.52
2023-04-10T12:41:30.657Z,18.51
2023-04-10T12:42:34.490Z,18.54
2023-04-10T12:43:39.198Z,18.56
2023-04-10T12:44:41.582Z,18.61
2023-04-10T12:45:44.020Z,18.59
2023-04-10T12:47:53.536Z,18.52
2023-04-10T12:48:56.043Z,18.60
2023-04-10T12:49:58.160Z,18.58
2023-04-10T12:51:00.706Z,18.62
2023-04-10T12:52:04.669Z,18.55
2023-04-10T12:53:10.176Z,18.57
2023-04-10T12:54:12.326Z,18.63
2023-04-10T12:55:14.896Z,18.68
2023-04-10T12:56:17.220Z,18.76
2023-04-10T12:57:25.313Z,18.75
2023-04-10T12:58:27.365Z,18.78
2023-04-10T12:59:30.945Z,18.71
2023-04-10T13:00:33.163Z,18.73
2023-04-10T13:01:35.607Z,18.60
2023-04-10T13:02:38.337Z,18.59
2023-04-10T13:03:40.650Z,18.60
2023-04-10T13:04:43.125Z,18.52
2023-04-10T13:05:45.482Z,18.49
2023-04-10T13:06:48.132Z,18.56
2023-04-10T13:07:50.441Z,18.52
2023-04-10T13:09:55.357Z,18.44
2023-04-10T13:11:00.513Z,18.45
2023-04-10T13:12:02.757Z,18.42
2023-04-10T13:13:05.164Z,18.46
2023-04-10T13:14:08.465Z,18.39
2023-04-10T13:15:12.629Z,18.35
2023-04-10T13:16:14.677Z,18.34
2023-04-10T13:17:16.990Z,18.29
2023-04-10T13:18:21.262Z,18.30
2023-04-10T13:19:27.620Z,18.23
2023-04-10T13:20:29.570Z,18.24
2023-04-10T13:21:33.596Z,18.26
2023-04-10T13:22:35.984Z,18.32
2023-04-10T13:23:38.401Z,18.33
2023-04-10T13:25:50.583Z,18.37
2023-04-10T13:26:52.932Z,18.42
2023-04-10T13:27:55.331Z,18.45
2023-04-10T13:30:00.044Z,18.46
2023-04-10T13:31:02.431Z,18.47
2023-04-10T13:32:06.668Z,18.44
2023-04-10T13:33:08.898Z,18.53
2023-04-10T13:34:13.173Z,18.56
2023-04-10T13:35:16.435Z,18.64
2023-04-10T13:36:18.800Z,18.62
2023-04-10T13:37:21.180Z,18.56
2023-04-10T13:38:27.405Z,18.61
2023-04-10T13:39:29.730Z,18.71
2023-04-10T13:40:31.939Z,18.76
2023-04-10T13:41:34.400Z,18.86
2023-04-10T13:42:38.841Z,18.96
2023-04-10T13:43:39.525Z,19.03
2023-04-10T13:44:42.046Z,19.00
2023-04-10T13:45:44.531Z,19.10
2023-04-10T13:46:47.205Z,19.13
2023-04-10T13:47:51.328Z,19.14
2023-04-10T13:48:53.532Z,19.15
2023-04-10T13:49:56.035Z,19.16
2023-04-10T13:50:58.466Z,19.21
2023-04-10T13:52:00.886Z,19.27
2023-04-10T13:53:04.416Z,19.33
2023-04-10T13:54:06.942Z,19.39
2023-04-10T13:55:19.127Z,19.36
2023-04-10T13:56:22.271Z,19.31
2023-04-10T13:57:25.349Z,19.30
2023-04-10T13:58:32.910Z,19.21
2023-04-10T13:59:34.820Z,19.27
2023-04-10T14:00:37.173Z,19.30
2023-04-10T14:01:43.690Z,19.29
2023-04-10T14:02:47.376Z,19.25
2023-04-10T14:03:50.508Z,19.28
2023-04-10T14:04:52.804Z,19.12
2023-04-10T14:14:22.412Z,18.82
2023-04-10T14:15:25.683Z,18.83
2023-04-10T14:16:28.694Z,18.88
2023-04-10T14:17:32.066Z,18.93
2023-04-10T14:18:35.440Z,18.89
2023-04-10T14:19:38.122Z,18.83
2023-04-10T14:25:13.962Z,18.81
2023-04-10T14:26:15.499Z,18.77
2023-04-10T14:27:22.272Z,18.72
2023-04-10T14:28:25.612Z,18.70
2023-04-10T14:29:36.244Z,18.73
2023-04-10T14:30:30.247Z,18.71
2023-04-10T14:31:47.084Z,18.73
2023-04-10T14:32:40.628Z,18.81
2023-04-10T14:34:50.292Z,18.86
2023-04-10T14:35:52.293Z,18.89
2023-04-10T14:36:56.425Z,19
2023-04-10T14:46:08.844Z,18.95
2023-04-10T14:59:17.270Z,18.93
2023-04-10T15:00:22.433Z,18.87
2023-04-10T15:01:27.157Z,18.85
2023-04-10T15:02:30.770Z,18.78
2023-04-10T15:04:43.858Z,18.62
2023-04-10T15:05:47.608Z,18.59
2023-04-10T15:06:49.947Z,18.56
2023-04-10T15:08:02.116Z,18.54
2023-04-10T15:09:04.581Z,18.49
2023-04-10T15:10:16.582Z,18.41
2023-04-10T15:11:18.349Z,18.45
2023-04-10T15:12:22.421Z,18.47
2023-04-10T15:13:27.511Z,18.46
2023-04-10T15:14:32.444Z,18.48
2023-04-10T15:15:38.277Z,18.41
2023-04-10T15:16:40.798Z,18.43
2023-04-10T15:17:43.060Z,18.40
2023-04-10T15:19:47.882Z,18.37
2023-04-10T15:20:50.468Z,18.36
2023-04-10T15:21:52.858Z,18.31
2023-04-10T15:22:56.854Z,18.27
2023-04-10T15:23:59.191Z,18.23
2023-04-10T15:25:03.294Z,18.26
2023-04-10T15:26:08.120Z,18.20
2023-04-10T15:27:11.310Z,18.19
2023-04-10T15:28:14.772Z,18.08
2023-04-10T15:29:18.642Z,18.03
2023-04-10T15:30:22.637Z,18.05
2023-04-10T15:31:24.922Z,18.04
2023-04-10T15:32:28.440Z,18.06
2023-04-10T15:33:30.756Z,18.04
2023-04-10T15:35:38.166Z,18.05
2023-04-10T15:36:40.494Z,18.07
2023-04-10T15:37:43.017Z,18.06
2023-04-10T15:38:45.646Z,18.05
2023-04-10T15:39:48.014Z,18.03
2023-04-10T15:41:54.509Z,18.01
2023-04-10T15:42:58.513Z,18.00
2023-04-10T15:44:00.795Z,17.99
2023-04-10T15:45:04.331Z,18.00
2023-04-10T15:46:07.632Z,17.98
2023-04-10T15:55:39.067Z,17.75
2023-04-10T15:56:41.580Z,17.76
2023-04-10T15:57:44.066Z,17.78
2023-04-10T15:59:51.500Z,17.82
2023-04-10T16:00:55.483Z,17.79
2023-04-10T16:01:57.837Z,17.83
2023-04-10T16:03:02.015Z,17.81
2023-04-10T16:04:06.795Z,17.78
2023-04-10T16:05:09.077Z,17.74
2023-04-10T16:06:11.399Z,17.71
2023-04-10T16:07:16.470Z,17.72
2023-04-10T16:08:18.673Z,17.68
2023-04-10T16:09:26.006Z,17.65
2023-04-10T16:10:27.576Z,17.68
2023-04-10T16:11:20.698Z,17.67
2023-04-10T16:11:31.645Z,17.62
2023-04-10T16:12:33.793Z,17.59
2023-04-10T16:13:37.455Z,17.55
2023-04-10T16:14:38.794Z,17.54
2023-04-10T16:15:41.199Z,17.50
2023-04-10T16:16:43.698Z,17.46
2023-04-10T16:17:46.212Z,17.42
2023-04-10T16:18:48.618Z,17.39
2023-04-10T16:19:52.755Z,17.36
2023-04-10T16:20:55.047Z,17.33
2023-04-10T16:22:01.169Z,17.29
2023-04-10T16:24:08.276Z,17.27
2023-04-10T16:25:10.815Z,17.28
2023-04-10T16:26:13.139Z,17.23
2023-04-10T16:27:17.309Z,17.21
2023-04-10T16:28:20.495Z,17.19
2023-04-10T16:29:22.881Z,17.17
2023-04-10T16:30:25.320Z,17.14
2023-04-10T16:32:31.579Z,17.09
2023-04-10T16:33:32.630Z,17.07
2023-04-10T16:34:35.144Z,17.06
2023-04-10T16:39:45.484Z,17
2023-04-10T16:44:08.961Z,16.60
2023-04-10T16:45:11.148Z,16.61
2023-04-10T16:46:14.017Z,16.62
2023-04-10T16:47:17.369Z,16.64
2023-04-10T16:48:19.591Z,16.67
2023-04-10T16:49:23.716Z,16.69
2023-04-10T16:50:26.457Z,16.72
2023-04-10T16:51:28.770Z,16.74
2023-04-10T16:52:32.215Z,16.72
2023-04-10T16:53:35.524Z,16.71
2023-04-10T16:53:58.106Z,16.67
2023-04-10T17:08:10.746Z,16.34
2023-04-10T17:22:25.468Z,16.15
2023-04-10T17:36:33.274Z,15.69
2023-04-10T17:49:02.136Z,15.48
2023-04-10T17:50:47.608Z,15.26
2023-04-10T18:04:56.075Z,14.95
2023-04-10T18:18:44.656Z,14.93
2023-04-10T18:19:09.793Z,14.69
2023-04-10T18:33:19.011Z,14.75
2023-04-10T18:47:32.043Z,14.76
2023-04-10T19:01:46.125Z,14.63
2023-04-10T19:15:58.854Z,14.4
2023-04-10T19:30:08.119Z,14.12
2023-04-10T19:44:18.255Z,13.82
2023-04-10T19:54:24.300Z,13.80
2023-04-10T19:58:39.782Z,13.53
2023-04-10T20:12:43.796Z,13.44
2023-04-10T20:13:35.317Z,13.44
2023-04-10T20:23:05.861Z,13.44
2023-04-10T20:26:53.784Z,13.36
2023-04-10T20:41:06.312Z,13.31
2023-04-10T20:55:20.808Z,13.32
2023-04-10T21:09:29.711Z,13.38
2023-04-10T21:23:42.801Z,13.55
2023-04-10T21:37:56.502Z,13.72
2023-04-10T21:52:08.955Z,13.8
2023-04-10T22:06:22.814Z,13.92
2023-04-10T22:20:33.636Z,13.44
2023-04-10T22:28:31.240Z,13.31
2023-04-10T22:34:40.635Z,12.48
2023-04-10T23:03:04.427Z,12.64
2023-04-10T23:17:19.429Z,12.6
2023-04-10T23:31:27.072Z,12.19
2023-04-10T23:35:29.207Z,12.16
2023-04-10T23:45:04.404Z,11.62
2023-04-10T23:45:38.209Z,11.5
2023-04-10T23:54:39.232Z,11.19
2023-04-10T23:59:48.968Z,10.93
